createdAt,value
2022-09-28T00:00:01.336Z,8.7
2022-09-28T00:01:01.897Z,8.6
2022-09-28T00:02:01.555Z,8.6
2022-09-28T00:03:01.101Z,8.6
2022-09-28T00:04:01.633Z,8.6
2022-09-28T00:05:01.226Z,8.5
2022-09-28T00:06:01.791Z,8.6
2022-09-28T00:07:01.363Z,8.6
2022-09-28T00:08:01.937Z,8.6
2022-09-28T00:09:01.530Z,8.6
2022-09-28T00:10:01.124Z,8.6
2022-09-28T00:11:01.733Z,8.6
2022-09-28T00:12:01.328Z,8.6
2022-09-28T00:13:01.890Z,8.6
2022-09-28T00:14:01.471Z,8.6
2022-09-28T00:15:01.065Z,8.6
2022-09-28T00:16:01.644Z,8.6
2022-09-28T00:17:01.266Z,8.6
2022-09-28T00:18:01.833Z,8.6
2022-09-28T00:19:01.408Z,8.5
2022-09-28T00:20:01.982Z,8.6
2022-09-28T00:21:01.560Z,8.6
2022-09-28T00:22:01.155Z,8.7
2022-09-28T00:23:01.720Z,8.6
2022-09-28T00:24:01.294Z,8.6
2022-09-28T00:25:01.867Z,8.6
2022-09-28T00:26:01.438Z,8.6
2022-09-28T00:27:01.051Z,8.6
2022-09-28T00:28:01.598Z,8.6
2022-09-28T00:29:01.172Z,8.6
2022-09-28T00:30:01.753Z,8.6
2022-09-28T00:31:01.355Z,8.6
2022-09-28T00:32:01.982Z,8.5
2022-09-28T00:33:01.561Z,8.6
2022-09-28T00:34:01.135Z,8.6
2022-09-28T00:35:01.710Z,8.5
2022-09-28T00:36:01.287Z,8.5
2022-09-28T00:37:01.879Z,8.5
2022-09-28T00:38:01.466Z,8.5
2022-09-28T00:39:01.026Z,8.5
2022-09-28T00:40:01.595Z,8.5
2022-09-28T00:41:01.198Z,8.5
2022-09-28T00:42:01.779Z,8.5
2022-09-28T00:43:01.423Z,8.4
2022-09-28T00:44:01.925Z,8.4
2022-09-28T00:45:01.497Z,8.4
2022-09-28T00:46:01.100Z,8.4
2022-09-28T00:47:01.667Z,8.4
2022-09-28T00:48:01.255Z,8.4
2022-09-28T00:49:01.810Z,8.4
2022-09-28T00:50:01.382Z,8.4
2022-09-28T00:51:01.955Z,8.4
2022-09-28T00:52:01.526Z,8.4
2022-09-28T00:53:01.117Z,8.3
2022-09-28T00:54:01.678Z,8.3
2022-09-28T00:55:01.250Z,8.3
2022-09-28T00:56:01.828Z,8.3
2022-09-28T00:57:01.406Z,8.3
2022-09-28T00:58:01.996Z,8.2
2022-09-28T00:59:01.595Z,8.2
2022-09-28T01:00:01.172Z,8.3
2022-09-28T01:01:01.773Z,8.2
2022-09-28T01:02:01.455Z,8.2
2022-09-28T01:03:02.004Z,8.2
2022-09-28T01:04:01.594Z,8.2
2022-09-28T01:05:01.169Z,8.2
2022-09-28T01:06:01.741Z,8.2
2022-09-28T01:07:01.314Z,8.1
2022-09-28T01:08:01.909Z,8.1
2022-09-28T01:09:01.483Z,8.1
2022-09-28T01:10:01.057Z,8.1
2022-09-28T01:11:01.630Z,8.1
2022-09-28T01:12:01.207Z,8.1
2022-09-28T01:13:01.804Z,8.1
2022-09-28T01:14:01.382Z,8
2022-09-28T01:15:01.979Z,8.1
2022-09-28T01:16:01.584Z,8
2022-09-28T01:17:01.172Z,8
2022-09-28T01:18:01.773Z,8
2022-09-28T01:19:01.349Z,8
2022-09-28T01:20:01.922Z,8
2022-09-28T01:21:01.498Z,8
2022-09-28T01:22:01.072Z,8
2022-09-28T01:23:01.670Z,8.1
2022-09-28T01:24:01.301Z,8.1
2022-09-28T01:25:01.875Z,8.1
2022-09-28T01:26:01.451Z,8.1
2022-09-28T01:27:01.020Z,8.1
2022-09-28T01:28:01.615Z,8.1
2022-09-28T01:29:01.187Z,8.1
2022-09-28T01:30:01.765Z,8.1
2022-09-28T01:31:01.362Z,8.1
2022-09-28T01:32:01.997Z,8
2022-09-28T01:33:01.587Z,8
2022-09-28T01:34:01.163Z,8
2022-09-28T01:35:01.745Z,8
2022-09-28T01:36:01.331Z,8
2022-09-28T01:37:01.906Z,8
2022-09-28T01:38:01.506Z,8
2022-09-28T01:39:01.072Z,7.9
2022-09-28T01:40:01.649Z,7.9
2022-09-28T01:41:01.236Z,7.9
2022-09-28T01:42:01.809Z,7.9
2022-09-28T01:43:01.384Z,7.9
2022-09-28T01:44:01.018Z,7.9
2022-09-28T01:45:01.536Z,7.9
2022-09-28T01:46:01.157Z,7.9
2022-09-28T01:47:01.729Z,7.8
2022-09-28T01:48:01.307Z,7.9
2022-09-28T01:49:01.895Z,7.9
2022-09-28T01:50:01.493Z,7.9
2022-09-28T01:51:01.055Z,8
2022-09-28T01:52:01.627Z,7.9
2022-09-28T01:53:01.197Z,8
2022-09-28T01:54:01.784Z,8
2022-09-28T01:55:01.368Z,8
2022-09-28T01:56:01.926Z,8
2022-09-28T01:57:01.498Z,8
2022-09-28T01:58:01.075Z,8.1
2022-09-28T01:59:01.686Z,8
2022-09-28T02:00:01.261Z,8
2022-09-28T02:01:01.879Z,8
2022-09-28T02:02:01.524Z,8
2022-09-28T02:03:01.089Z,8
2022-09-28T02:04:01.651Z,8
2022-09-28T02:05:01.239Z,8
2022-09-28T02:06:01.804Z,8
2022-09-28T02:07:01.375Z,8.1
2022-09-28T02:08:01.953Z,8.1
2022-09-28T02:09:01.547Z,8.1
2022-09-28T02:10:01.142Z,8.1
2022-09-28T02:11:01.722Z,8.1
2022-09-28T02:12:01.314Z,8
2022-09-28T02:13:01.876Z,8
2022-09-28T02:14:01.464Z,8.1
2022-09-28T02:15:01.038Z,8.1
2022-09-28T02:16:01.627Z,8
2022-09-28T02:17:01.232Z,8
2022-09-28T02:18:01.783Z,8
2022-09-28T02:19:01.386Z,8
2022-09-28T02:20:01.942Z,8
2022-09-28T02:21:01.515Z,8
2022-09-28T02:22:01.114Z,8.1
2022-09-28T02:23:01.669Z,8.1
2022-09-28T02:24:01.245Z,8.1
2022-09-28T02:25:01.816Z,8.1
2022-09-28T02:26:01.386Z,8
2022-09-28T02:27:01.978Z,8
2022-09-28T02:28:01.556Z,8
2022-09-28T02:29:01.132Z,8
2022-09-28T02:30:01.710Z,8
2022-09-28T02:31:01.284Z,8
2022-09-28T02:32:01.878Z,8
2022-09-28T02:33:01.480Z,8
2022-09-28T02:34:01.035Z,8
2022-09-28T02:35:01.637Z,8
2022-09-28T02:36:01.213Z,8
2022-09-28T02:37:01.786Z,7.9
2022-09-28T02:38:01.381Z,8
2022-09-28T02:39:01.933Z,8
2022-09-28T02:40:01.507Z,8
2022-09-28T02:41:01.152Z,8
2022-09-28T02:42:01.657Z,8
2022-09-28T02:43:01.252Z,8
2022-09-28T02:44:01.858Z,8
2022-09-28T02:45:01.433Z,8
2022-09-28T02:46:01.042Z,8
2022-09-28T02:47:01.591Z,8
2022-09-28T02:48:01.187Z,8
2022-09-28T02:49:20.124Z,7.9
2022-09-28T02:50:01.294Z,8
2022-09-28T02:51:01.892Z,7.9
2022-09-28T02:52:01.465Z,8
2022-09-28T02:53:01.056Z,8
2022-09-28T02:54:01.614Z,7.9
2022-09-28T02:55:01.205Z,8
2022-09-28T02:56:01.765Z,8
2022-09-28T02:57:01.348Z,8
2022-09-28T02:58:01.915Z,8
2022-09-28T02:59:01.487Z,8
2022-09-28T03:00:01.075Z,8
2022-09-28T03:01:01.681Z,8
2022-09-28T03:02:01.323Z,8
2022-09-28T03:03:01.868Z,8
2022-09-28T03:04:01.440Z,8
2022-09-28T03:05:01.034Z,8
2022-09-28T03:06:01.584Z,8
2022-09-28T03:07:01.182Z,8.1
2022-09-28T03:08:01.740Z,8.1
2022-09-28T03:09:01.310Z,8
2022-09-28T03:10:01.907Z,8.1
2022-09-28T03:11:01.510Z,8.1
2022-09-28T03:12:01.080Z,8.1
2022-09-28T03:13:01.646Z,8
2022-09-28T03:14:01.219Z,8.1
2022-09-28T03:15:01.831Z,8
2022-09-28T03:16:01.420Z,8.1
2022-09-28T03:17:00.994Z,8.1
2022-09-28T03:18:01.579Z,8.1
2022-09-28T03:19:01.155Z,8.1
2022-09-28T03:20:01.747Z,8.1
2022-09-28T03:21:01.321Z,8.1
2022-09-28T03:22:01.895Z,8
2022-09-28T03:23:23.130Z,8.1
2022-09-28T03:24:01.004Z,8.1
2022-09-28T03:25:01.595Z,8
2022-09-28T03:26:01.189Z,8
2022-09-28T03:27:01.790Z,8
2022-09-28T03:28:01.365Z,8
2022-09-28T03:29:01.936Z,8
2022-09-28T03:30:01.533Z,8
2022-09-28T03:31:01.135Z,8
2022-09-28T03:32:01.699Z,8
2022-09-28T03:33:01.270Z,8
2022-09-28T03:34:01.844Z,8
2022-09-28T03:35:01.417Z,8
2022-09-28T03:36:02.004Z,7.9
2022-09-28T03:37:01.576Z,8
2022-09-28T03:38:01.147Z,8
2022-09-28T03:39:01.763Z,8
2022-09-28T03:40:01.336Z,8.1
2022-09-28T03:41:01.991Z,8
2022-09-28T03:42:01.585Z,8
2022-09-28T03:43:01.160Z,8
2022-09-28T03:44:01.726Z,8
2022-09-28T03:45:01.341Z,8
2022-09-28T03:46:02.001Z,8.1
2022-09-28T03:47:01.566Z,8
2022-09-28T03:48:01.138Z,7.9
2022-09-28T03:49:01.713Z,8
2022-09-28T03:50:01.287Z,8
2022-09-28T03:51:01.861Z,8
2022-09-28T03:52:01.450Z,8
2022-09-28T03:53:01.020Z,8
2022-09-28T03:54:01.613Z,8
2022-09-28T03:55:01.211Z,8.1
2022-09-28T03:56:01.760Z,8
2022-09-28T03:57:01.331Z,8
2022-09-28T03:58:01.908Z,8
2022-09-28T03:59:01.501Z,8
2022-09-28T04:00:01.076Z,8
2022-09-28T04:01:01.704Z,7.9
2022-09-28T04:02:01.356Z,8
2022-09-28T04:03:01.889Z,7.9
2022-09-28T04:04:01.479Z,7.8
2022-09-28T04:05:01.046Z,7.9
2022-09-28T04:06:01.619Z,7.9
2022-09-28T04:07:01.190Z,7.8
2022-09-28T04:08:01.764Z,7.9
2022-09-28T04:09:01.360Z,7.9
2022-09-28T04:10:01.927Z,7.9
2022-09-28T04:11:01.607Z,7.9
2022-09-28T04:12:04.053Z,7.9
2022-09-28T04:13:01.693Z,7.9
2022-09-28T04:14:01.287Z,7.9
2022-09-28T04:15:01.841Z,7.9
2022-09-28T04:16:01.592Z,7.9
2022-09-28T04:17:01.002Z,7.9
2022-09-28T04:18:01.574Z,7.9
2022-09-28T04:19:01.165Z,8
2022-09-28T04:20:01.719Z,8
2022-09-28T04:21:01.310Z,7.9
2022-09-28T04:22:01.877Z,7.9
2022-09-28T04:23:01.449Z,7.9
2022-09-28T04:24:01.024Z,7.9
2022-09-28T04:25:01.618Z,7.9
2022-09-28T04:26:01.212Z,7.9
2022-09-28T04:27:01.788Z,7.9
2022-09-28T04:28:01.360Z,7.8
2022-09-28T04:29:06.289Z,7.9
2022-09-28T04:30:01.483Z,7.9
2022-09-28T04:31:01.093Z,7.9
2022-09-28T04:32:01.683Z,7.9
2022-09-28T04:33:01.286Z,7.9
2022-09-28T04:34:01.857Z,7.9
2022-09-28T04:35:01.437Z,7.8
2022-09-28T04:36:01.017Z,7.9
2022-09-28T04:37:01.586Z,7.9
2022-09-28T04:38:01.161Z,7.9
2022-09-28T04:39:01.737Z,7.9
2022-09-28T04:40:01.324Z,7.9
2022-09-28T04:41:01.930Z,8
2022-09-28T04:42:01.561Z,7.9
2022-09-28T04:43:01.139Z,7.9
2022-09-28T04:44:01.700Z,7.9
2022-09-28T04:45:01.289Z,7.8
2022-09-28T04:46:01.973Z,7.8
2022-09-28T04:47:04.910Z,7.8
2022-09-28T04:48:01.062Z,7.8
2022-09-28T04:49:01.640Z,7.8
2022-09-28T04:50:01.215Z,7.8
2022-09-28T04:51:01.804Z,7.8
2022-09-28T04:52:01.376Z,7.8
2022-09-28T04:53:01.947Z,7.8
2022-09-28T04:54:01.525Z,7.8
2022-09-28T04:55:01.102Z,7.9
2022-09-28T04:56:01.698Z,7.8
2022-09-28T04:57:01.276Z,7.9
2022-09-28T04:58:01.849Z,7.8
2022-09-28T04:59:01.451Z,7.9
2022-09-28T05:00:00.999Z,7.9
2022-09-28T05:01:01.681Z,7.9
2022-09-28T05:02:01.257Z,7.9
2022-09-28T05:03:01.792Z,7.9
2022-09-28T05:04:01.365Z,7.8
2022-09-28T05:05:01.948Z,7.9
2022-09-28T05:06:01.577Z,7.8
2022-09-28T05:07:01.157Z,7.9
2022-09-28T05:08:01.727Z,7.8
2022-09-28T05:09:01.300Z,7.9
2022-09-28T05:10:01.880Z,7.8
2022-09-28T05:11:01.490Z,7.9
2022-09-28T05:12:01.042Z,7.9
2022-09-28T05:13:01.616Z,7.9
2022-09-28T05:14:01.188Z,7.8
2022-09-28T05:15:01.784Z,7.9
2022-09-28T05:16:05.139Z,7.9
2022-09-28T05:17:01.989Z,7.9
2022-09-28T05:18:01.607Z,7.9
2022-09-28T05:19:01.158Z,7.9
2022-09-28T05:20:01.730Z,7.9
2022-09-28T05:21:01.324Z,7.9
2022-09-28T05:22:01.878Z,7.9
2022-09-28T05:23:01.449Z,7.9
2022-09-28T05:24:01.019Z,7.9
2022-09-28T05:25:01.590Z,8
2022-09-28T05:26:01.185Z,8.1
2022-09-28T05:27:01.748Z,8
2022-09-28T05:28:01.318Z,8
2022-09-28T05:29:01.890Z,8
2022-09-28T05:30:01.470Z,8
2022-09-28T05:31:01.093Z,8
2022-09-28T05:32:01.864Z,8
2022-09-28T05:33:01.273Z,8
2022-09-28T05:34:01.847Z,8
2022-09-28T05:35:01.421Z,8
2022-09-28T05:36:01.731Z,8
2022-09-28T05:37:01.490Z,8
2022-09-28T05:38:01.064Z,8
2022-09-28T05:39:01.646Z,8
2022-09-28T05:40:01.216Z,8
2022-09-28T05:41:05.808Z,8
2022-09-28T05:42:01.346Z,8
2022-09-28T05:43:01.920Z,8.1
2022-09-28T05:44:01.494Z,8.1
2022-09-28T05:45:01.066Z,8.1
2022-09-28T05:46:01.756Z,8.1
2022-09-28T05:47:01.332Z,8.1
2022-09-28T05:48:01.876Z,8.1
2022-09-28T05:49:01.470Z,8.1
2022-09-28T05:50:01.023Z,8.1
2022-09-28T05:51:01.595Z,8.1
2022-09-28T05:52:01.170Z,8.1
2022-09-28T05:53:01.745Z,8.1
2022-09-28T05:54:05.585Z,8.1
2022-09-28T05:55:01.871Z,8.1
2022-09-28T05:56:01.441Z,8.1
2022-09-28T05:57:01.013Z,8.1
2022-09-28T05:58:01.586Z,8.1
2022-09-28T05:59:01.176Z,8.1
2022-09-28T06:00:01.734Z,8.1
2022-09-28T06:01:01.425Z,8.2
2022-09-28T06:02:01.901Z,8.1
2022-09-28T06:03:04.354Z,8.2
2022-09-28T06:04:01.065Z,8.1
2022-09-28T06:05:01.638Z,8.2
2022-09-28T06:06:01.229Z,8.2
2022-09-28T06:07:01.798Z,8.2
2022-09-28T06:08:01.371Z,8.1
2022-09-28T06:09:01.947Z,8.1
2022-09-28T06:10:01.523Z,8.2
2022-09-28T06:11:01.118Z,8.2
2022-09-28T06:12:01.686Z,8.3
2022-09-28T06:13:01.258Z,8.4
2022-09-28T06:14:01.830Z,8.4
2022-09-28T06:15:01.409Z,8.5
2022-09-28T06:16:02.000Z,8.5
2022-09-28T06:17:01.648Z,8.5
2022-09-28T06:18:01.228Z,8.6
2022-09-28T06:19:01.827Z,8.6
2022-09-28T06:20:01.405Z,8.6
2022-09-28T06:21:02.003Z,8.7
2022-09-28T06:22:01.586Z,8.8
2022-09-28T06:23:01.166Z,8.7
2022-09-28T06:24:01.740Z,8.8
2022-09-28T06:25:01.315Z,8.8
2022-09-28T06:26:01.905Z,8.8
2022-09-28T06:27:01.497Z,8.8
2022-09-28T06:28:01.063Z,8.7
2022-09-28T06:29:01.639Z,8.8
2022-09-28T06:30:01.218Z,8.7
2022-09-28T06:31:01.936Z,8.7
2022-09-28T06:32:01.456Z,8.6
2022-09-28T06:33:01.018Z,8.6
2022-09-28T06:34:01.595Z,8.7
2022-09-28T06:35:01.194Z,8.7
2022-09-28T06:36:01.760Z,8.8
2022-09-28T06:37:01.333Z,8.7
2022-09-28T06:38:01.906Z,8.7
2022-09-28T06:39:01.476Z,8.7
2022-09-28T06:40:01.047Z,8.6
2022-09-28T06:41:01.697Z,8.7
2022-09-28T06:42:01.272Z,8.8
2022-09-28T06:43:01.845Z,8.8
2022-09-28T06:44:01.417Z,8.8
2022-09-28T06:45:00.993Z,8.8
2022-09-28T06:46:01.615Z,8.8
2022-09-28T06:47:01.278Z,8.9
2022-09-28T06:48:01.786Z,8.9
2022-09-28T06:49:01.358Z,8.8
2022-09-28T06:50:01.929Z,8.8
2022-09-28T06:51:01.543Z,8.7
2022-09-28T06:52:01.120Z,8.7
2022-09-28T06:53:01.696Z,8.8
2022-09-28T06:54:01.271Z,8.8
2022-09-28T06:55:01.845Z,8.8
2022-09-28T06:56:01.434Z,8.8
2022-09-28T06:57:00.992Z,8.8
2022-09-28T06:58:01.566Z,8.8
2022-09-28T06:59:01.142Z,8.7
2022-09-28T07:00:01.716Z,8.7
2022-09-28T07:01:01.348Z,8.7
2022-09-28T07:02:01.898Z,8.7
2022-09-28T07:03:01.482Z,8.7
2022-09-28T07:04:01.053Z,8.7
2022-09-28T07:05:01.632Z,8.7
2022-09-28T07:06:01.225Z,8.6
2022-09-28T07:07:01.820Z,8.6
2022-09-28T07:08:01.394Z,8.5
2022-09-28T07:09:16.557Z,8.6
2022-09-28T07:10:01.521Z,8.6
2022-09-28T07:11:01.115Z,8.6
2022-09-28T07:12:01.689Z,8.6
2022-09-28T07:13:01.274Z,8.7
2022-09-28T07:14:01.840Z,8.7
2022-09-28T07:15:01.416Z,8.7
2022-09-28T07:16:01.005Z,8.6
2022-09-28T07:17:12.888Z,8.6
2022-09-28T07:18:03.436Z,8.7
2022-09-28T07:19:01.659Z,8.7
2022-09-28T07:20:11.284Z,8.7
2022-09-28T07:21:01.786Z,8.7
2022-09-28T07:22:04.955Z,8.7
2022-09-28T07:23:13.673Z,8.6
2022-09-28T07:24:01.429Z,8.7
2022-09-28T07:25:01.001Z,8.7
2022-09-28T07:26:01.677Z,8.6
2022-09-28T07:27:01.230Z,8.6
2022-09-28T07:28:01.801Z,8.6
2022-09-28T07:29:01.375Z,8.7
2022-09-28T07:30:01.946Z,8.7
2022-09-28T07:31:01.602Z,8.7
2022-09-28T07:32:01.193Z,8.6
2022-09-28T07:33:01.790Z,8.6
2022-09-28T07:34:01.361Z,8.6
2022-09-28T07:35:01.934Z,8.6
2022-09-28T07:36:01.533Z,8.6
2022-09-28T07:37:01.108Z,8.6
2022-09-28T07:38:01.679Z,8.6
2022-09-28T07:39:01.276Z,8.7
2022-09-28T07:40:01.838Z,8.7
2022-09-28T07:41:01.563Z,8.7
2022-09-28T07:42:02.864Z,8.7
2022-09-28T07:43:01.542Z,8.7
2022-09-28T07:44:01.119Z,8.8
2022-09-28T07:45:01.691Z,8.8
2022-09-28T07:46:01.354Z,8.8
2022-09-28T07:47:01.842Z,8.8
2022-09-28T07:48:01.533Z,8.8
2022-09-28T07:49:00.990Z,8.8
2022-09-28T07:50:01.569Z,8.8
2022-09-28T07:51:01.165Z,8.7
2022-09-28T07:52:01.735Z,8.7
2022-09-28T07:53:01.323Z,8.8
2022-09-28T07:54:01.883Z,8.8
2022-09-28T07:55:06.104Z,8.8
2022-09-28T07:56:00.995Z,8.8
2022-09-28T07:57:01.569Z,8.8
2022-09-28T07:58:01.174Z,8.8
2022-09-28T07:59:01.717Z,8.8
2022-09-28T08:00:01.289Z,8.9
2022-09-28T08:01:01.881Z,8.9
2022-09-28T08:02:01.518Z,9
2022-09-28T08:03:01.080Z,9.1
2022-09-28T08:04:01.650Z,9.1
2022-09-28T08:05:01.221Z,9.3
2022-09-28T08:06:01.796Z,9.3
2022-09-28T08:07:01.374Z,9.3
2022-09-28T08:08:01.960Z,9.3
2022-09-28T08:09:01.535Z,9.3
2022-09-28T08:10:01.119Z,9.3
2022-09-28T08:11:01.714Z,9.4
2022-09-28T08:12:01.290Z,9.4
2022-09-28T08:13:02.583Z,9.5
2022-09-28T08:14:01.645Z,9.5
2022-09-28T08:15:01.106Z,9.7
2022-09-28T08:16:01.677Z,9.8
2022-09-28T08:17:01.254Z,9.8
2022-09-28T08:18:02.670Z,9.9
2022-09-28T08:19:01.650Z,9.9
2022-09-28T08:20:01.076Z,10
2022-09-28T08:21:01.664Z,10
2022-09-28T08:22:01.235Z,9.9
2022-09-28T08:23:01.821Z,9.9
2022-09-28T08:24:01.393Z,10
2022-09-28T08:25:01.969Z,9.9
2022-09-28T08:26:01.550Z,9.9
2022-09-28T08:27:01.149Z,9.9
2022-09-28T08:28:01.725Z,9.8
2022-09-28T08:29:01.340Z,9.8
2022-09-28T08:30:01.889Z,9.8
2022-09-28T08:31:01.601Z,9.7
2022-09-28T08:32:01.842Z,9.6
2022-09-28T08:33:01.545Z,9.6
2022-09-28T08:34:01.139Z,9.6
2022-09-28T08:35:01.700Z,9.5
2022-09-28T08:36:01.270Z,9.5
2022-09-28T08:37:01.860Z,9.4
2022-09-28T08:38:01.435Z,9.4
2022-09-28T08:39:01.012Z,9.4
2022-09-28T08:40:01.584Z,9.4
2022-09-28T08:41:01.199Z,9.4
2022-09-28T08:42:01.739Z,9.5
2022-09-28T08:43:01.335Z,9.5
2022-09-28T08:44:01.894Z,9.6
2022-09-28T08:45:01.467Z,9.6
2022-09-28T08:46:01.115Z,9.6
2022-09-28T08:47:01.629Z,9.6
2022-09-28T08:48:01.238Z,9.6
2022-09-28T08:49:20.922Z,9.6
2022-09-28T08:50:01.317Z,9.5
2022-09-28T08:51:01.892Z,9.6
2022-09-28T08:52:01.488Z,9.8
2022-09-28T08:53:01.051Z,9.8
2022-09-28T08:54:01.645Z,9.9
2022-09-28T08:55:01.217Z,10
2022-09-28T08:56:01.805Z,9.9
2022-09-28T08:57:01.380Z,9.8
2022-09-28T08:58:01.953Z,9.8
2022-09-28T08:59:01.571Z,9.8
2022-09-28T09:00:01.144Z,9.7
2022-09-28T09:01:01.764Z,9.7
2022-09-28T09:02:01.746Z,9.8
2022-09-28T09:03:01.611Z,9.7
2022-09-28T09:04:01.199Z,9.7
2022-09-28T09:05:01.855Z,9.8
2022-09-28T09:06:01.451Z,9.7
2022-09-28T09:07:01.015Z,9.8
2022-09-28T09:08:01.591Z,9.9
2022-09-28T09:09:01.175Z,10.1
2022-09-28T09:10:01.748Z,10.1
2022-09-28T09:11:01.341Z,10
2022-09-28T09:12:01.910Z,9.8
2022-09-28T09:13:01.498Z,9.8
2022-09-28T09:14:01.073Z,9.8
2022-09-28T09:15:01.676Z,9.8
2022-09-28T09:16:01.270Z,9.9
2022-09-28T09:17:01.924Z,9.9
2022-09-28T09:18:01.509Z,10
2022-09-28T09:19:01.078Z,10.1
2022-09-28T09:20:01.654Z,10.2
2022-09-28T09:21:01.227Z,10
2022-09-28T09:22:01.805Z,10
2022-09-28T09:23:01.403Z,10
2022-09-28T09:24:01.972Z,10.1
2022-09-28T09:25:01.556Z,10.2
2022-09-28T09:26:01.131Z,10.3
2022-09-28T09:27:01.748Z,10.3
2022-09-28T09:28:01.328Z,10.5
2022-09-28T09:29:01.906Z,10.6
2022-09-28T09:30:01.488Z,10.5
2022-09-28T09:31:01.139Z,10.5
2022-09-28T09:32:01.665Z,10.4
2022-09-28T09:33:01.248Z,10.4
2022-09-28T09:34:01.819Z,10.4
2022-09-28T09:35:01.388Z,10.3
2022-09-28T09:36:01.961Z,10.2
2022-09-28T09:37:01.550Z,10.1
2022-09-28T09:38:01.124Z,10.1
2022-09-28T09:39:01.697Z,10.1
2022-09-28T09:40:01.272Z,10.1
2022-09-28T09:41:01.977Z,10
2022-09-28T09:42:01.495Z,9.8
2022-09-28T09:43:01.072Z,9.8
2022-09-28T09:44:01.646Z,9.8
2022-09-28T09:45:01.232Z,9.8
2022-09-28T09:46:01.885Z,9.9
2022-09-28T09:47:01.484Z,9.7
2022-09-28T09:48:01.058Z,9.7
2022-09-28T09:49:01.657Z,9.7
2022-09-28T09:50:03.998Z,9.7
2022-09-28T09:51:01.770Z,9.8
2022-09-28T09:52:01.345Z,10
2022-09-28T09:53:01.935Z,10.2
2022-09-28T09:54:01.529Z,10.5
2022-09-28T09:55:01.106Z,10.7
2022-09-28T09:56:01.680Z,10.8
2022-09-28T09:57:01.254Z,10.8
2022-09-28T09:58:01.843Z,10.8
2022-09-28T09:59:01.433Z,10.9
2022-09-28T10:00:01.009Z,10.9
2022-09-28T10:01:01.654Z,11
2022-09-28T10:02:01.282Z,11.1
2022-09-28T10:03:01.856Z,11.2
2022-09-28T10:04:01.443Z,11.2
2022-09-28T10:05:01.046Z,11
2022-09-28T10:06:01.592Z,10.9
2022-09-28T10:07:01.163Z,10.8
2022-09-28T10:08:01.734Z,10.7
2022-09-28T10:09:01.305Z,10.8
2022-09-28T10:10:01.893Z,10.8
2022-09-28T10:11:01.463Z,10.8
2022-09-28T10:12:01.040Z,11
2022-09-28T10:13:01.622Z,10.8
2022-09-28T10:14:01.203Z,10.9
2022-09-28T10:15:01.790Z,11
2022-09-28T10:16:01.401Z,11.1
2022-09-28T10:17:02.016Z,11.3
2022-09-28T10:18:01.629Z,11.4
2022-09-28T10:19:01.214Z,11.3
2022-09-28T10:20:01.791Z,11.3
2022-09-28T10:21:01.363Z,11.4
2022-09-28T10:22:01.953Z,11.5
2022-09-28T10:23:01.535Z,11.5
2022-09-28T10:24:01.117Z,11.4
2022-09-28T10:25:01.689Z,11.4
2022-09-28T10:26:01.263Z,11.5
2022-09-28T10:27:01.850Z,11.4
2022-09-28T10:28:01.424Z,11.4
2022-09-28T10:29:00.997Z,11.6
2022-09-28T10:30:01.568Z,11.6
2022-09-28T10:31:01.292Z,11.8
2022-09-28T10:32:01.745Z,11.9
2022-09-28T10:33:01.320Z,12.1
2022-09-28T10:34:01.893Z,12
2022-09-28T10:35:01.491Z,12
2022-09-28T10:36:01.048Z,11.9
2022-09-28T10:37:01.643Z,11.9
2022-09-28T10:38:01.217Z,11.9
2022-09-28T10:39:01.787Z,11.8
2022-09-28T10:40:01.358Z,11.9
2022-09-28T10:41:02.062Z,11.8
2022-09-28T10:42:01.736Z,11.9
2022-09-28T10:43:01.174Z,11.9
2022-09-28T10:44:01.748Z,11.9
2022-09-28T10:45:01.322Z,11.8
2022-09-28T10:46:02.024Z,11.8
2022-09-28T10:47:01.573Z,11.8
2022-09-28T10:48:01.144Z,11.9
2022-09-28T10:49:01.705Z,11.8
2022-09-28T10:50:01.318Z,11.8
2022-09-28T10:51:01.878Z,11.9
2022-09-28T10:52:01.469Z,11.8
2022-09-28T10:53:01.028Z,11.8
2022-09-28T10:54:01.611Z,11.9
2022-09-28T10:55:01.197Z,11.8
2022-09-28T10:56:01.767Z,12
2022-09-28T10:57:01.357Z,12.1
2022-09-28T10:58:01.928Z,12.2
2022-09-28T10:59:01.500Z,12.3
2022-09-28T11:00:01.077Z,12.4
2022-09-28T11:01:01.782Z,12.7
2022-09-28T11:02:01.383Z,13
2022-09-28T11:03:01.923Z,13.3
2022-09-28T11:04:01.557Z,13.5
2022-09-28T11:05:01.130Z,13.5
2022-09-28T11:06:01.712Z,13.3
2022-09-28T11:07:01.488Z,13
2022-09-28T11:08:01.878Z,13
2022-09-28T11:09:01.465Z,12.9
2022-09-28T11:10:01.038Z,12.9
2022-09-28T11:11:01.617Z,13
2022-09-28T11:12:01.190Z,13.1
2022-09-28T11:13:01.765Z,13
2022-09-28T11:14:01.359Z,12.9
2022-09-28T11:15:01.921Z,12.9
2022-09-28T11:16:01.494Z,13
2022-09-28T11:17:01.139Z,13.1
2022-09-28T11:18:01.650Z,13.1
2022-09-28T11:19:01.238Z,13.3
2022-09-28T11:20:01.823Z,13.3
2022-09-28T11:21:01.415Z,13.3
2022-09-28T11:22:01.986Z,13.4
2022-09-28T11:23:01.580Z,13.3
2022-09-28T11:24:01.177Z,13.1
2022-09-28T11:25:01.728Z,13.2
2022-09-28T11:26:01.323Z,13.2
2022-09-28T11:27:01.875Z,12.9
2022-09-28T11:28:01.474Z,12.9
2022-09-28T11:29:01.050Z,12.8
2022-09-28T11:30:01.629Z,12.8
2022-09-28T11:31:01.328Z,12.8
2022-09-28T11:32:01.817Z,12.8
2022-09-28T11:33:01.390Z,12.6
2022-09-28T11:34:01.965Z,12.4
2022-09-28T11:35:01.540Z,12.3
2022-09-28T11:36:01.126Z,12.6
2022-09-28T11:37:02.051Z,12.6
2022-09-28T11:38:01.368Z,12.7
2022-09-28T11:39:01.963Z,12.6
2022-09-28T11:40:01.540Z,12.6
2022-09-28T11:41:01.183Z,12.6
2022-09-28T11:42:01.715Z,12.6
2022-09-28T11:43:01.326Z,12.4
2022-09-28T11:44:01.859Z,12.2
2022-09-28T11:45:01.431Z,12.4
2022-09-28T11:46:01.070Z,12.3
2022-09-28T11:47:01.597Z,12.1
2022-09-28T11:48:01.188Z,12.1
2022-09-28T11:49:01.753Z,12.2
2022-09-28T11:50:01.355Z,12.4
2022-09-28T11:51:01.911Z,12.4
2022-09-28T11:52:01.487Z,12.6
2022-09-28T11:53:01.076Z,12.6
2022-09-28T11:54:01.645Z,12.6
2022-09-28T11:55:01.266Z,12.7
2022-09-28T11:56:04.233Z,12.6
2022-09-28T11:57:01.328Z,12.7
2022-09-28T11:58:01.921Z,12.6
2022-09-28T11:59:01.492Z,12.6
2022-09-28T12:00:01.066Z,12.5
2022-09-28T12:01:01.640Z,12.6
2022-09-28T12:02:01.325Z,12.5
2022-09-28T12:03:01.935Z,12.4
2022-09-28T12:04:01.476Z,12.4
2022-09-28T12:05:01.057Z,12.4
2022-09-28T12:06:01.631Z,12.4
2022-09-28T12:07:01.226Z,12.4
2022-09-28T12:08:01.830Z,12.5
2022-09-28T12:09:01.403Z,12.5
2022-09-28T12:10:01.981Z,12.6
2022-09-28T12:11:01.583Z,12.7
2022-09-28T12:12:01.159Z,12.7
2022-09-28T12:13:01.756Z,12.8
2022-09-28T12:14:01.333Z,12.8
2022-09-28T12:15:01.926Z,13
2022-09-28T12:16:27.514Z,13
2022-09-28T12:17:06.198Z,12.9
2022-09-28T12:18:01.618Z,12.9
2022-09-28T12:19:01.233Z,12.7
2022-09-28T12:20:01.832Z,12.7
2022-09-28T12:21:04.384Z,12.7
2022-09-28T12:22:01.942Z,12.8
2022-09-28T12:23:01.515Z,12.8
2022-09-28T12:24:01.103Z,12.8
2022-09-28T12:25:01.699Z,12.7
2022-09-28T12:26:01.295Z,12.9
2022-09-28T12:27:01.900Z,12.8
2022-09-28T12:28:01.474Z,12.6
2022-09-28T12:29:01.047Z,12.7
2022-09-28T12:30:01.620Z,12.8
2022-09-28T12:31:01.220Z,12.8
2022-09-28T12:32:01.795Z,12.9
2022-09-28T12:33:01.367Z,12.9
2022-09-28T12:34:01.937Z,12.9
2022-09-28T12:35:01.511Z,12.9
2022-09-28T12:36:01.098Z,12.8
2022-09-28T12:37:01.693Z,12.8
2022-09-28T12:38:01.293Z,12.9
2022-09-28T12:39:17.957Z,13
2022-09-28T12:40:01.794Z,13.1
2022-09-28T12:41:01.157Z,13
2022-09-28T12:42:01.710Z,13.1
2022-09-28T12:43:01.305Z,13.1
2022-09-28T12:44:01.871Z,13.2
2022-09-28T12:45:01.472Z,13.1
2022-09-28T12:46:11.815Z,13.2
2022-09-28T12:47:01.634Z,13.2
2022-09-28T12:48:01.257Z,13
2022-09-28T12:49:47.529Z,13
2022-09-28T12:50:37.388Z,13
2022-09-28T12:51:02.298Z,13
2022-09-28T12:52:01.118Z,12.9
2022-09-28T12:53:02.888Z,12.9
2022-09-28T12:54:01.878Z,12.8
2022-09-28T12:55:01.567Z,12.7
2022-09-28T12:56:01.032Z,12.8
2022-09-28T12:57:01.624Z,12.8
2022-09-28T12:58:01.201Z,12.7
2022-09-28T12:59:01.800Z,12.7
2022-09-28T13:00:01.433Z,12.7
2022-09-28T13:01:01.961Z,12.7
2022-09-28T13:02:01.559Z,12.6
2022-09-28T13:03:01.236Z,12.5
2022-09-28T13:04:01.718Z,12.4
2022-09-28T13:05:01.299Z,12.2
2022-09-28T13:06:01.876Z,12
2022-09-28T13:07:01.466Z,11.8
2022-09-28T13:08:01.031Z,11.8
2022-09-28T13:09:01.606Z,11.8
2022-09-28T13:10:01.179Z,11.8
2022-09-28T13:11:05.514Z,11.7
2022-09-28T13:12:01.303Z,11.8
2022-09-28T13:13:01.909Z,11.9
2022-09-28T13:14:01.484Z,11.9
2022-09-28T13:15:01.079Z,12.1
2022-09-28T13:16:01.664Z,12.2
2022-09-28T13:17:01.282Z,12.4
2022-09-28T13:18:01.876Z,12.5
2022-09-28T13:19:01.451Z,12.5
2022-09-28T13:20:01.082Z,12.5
2022-09-28T13:21:01.607Z,12.5
2022-09-28T13:22:01.179Z,12.6
2022-09-28T13:23:01.765Z,12.7
2022-09-28T13:24:14.676Z,12.7
2022-09-28T13:25:01.875Z,13.1
2022-09-28T13:26:01.450Z,13.1
2022-09-28T13:27:01.020Z,13
2022-09-28T13:28:01.606Z,12.9
2022-09-28T13:29:01.195Z,12.9
2022-09-28T13:30:01.942Z,12.9
2022-09-28T13:31:01.600Z,12.9
2022-09-28T13:32:01.002Z,12.9
2022-09-28T13:33:01.586Z,12.9
2022-09-28T13:34:01.174Z,12.9
2022-09-28T13:35:01.744Z,12.9
2022-09-28T13:36:01.316Z,12.9
2022-09-28T13:37:01.892Z,12.9
2022-09-28T13:38:01.468Z,13.1
2022-09-28T13:39:01.065Z,12.9
2022-09-28T13:40:01.627Z,12.8
2022-09-28T13:41:01.238Z,12.8
2022-09-28T13:42:02.612Z,12.7
2022-09-28T13:43:01.248Z,12.6
2022-09-28T13:44:01.840Z,12.8
2022-09-28T13:45:01.427Z,13
2022-09-28T13:46:01.055Z,13.1
2022-09-28T13:47:01.608Z,13.2
2022-09-28T13:48:01.181Z,13.3